Time;durP1;ratioP1;P1;durP2;ratioP2;P2;SDS_P1;SDS_P2;PMS_P1;PMS_P2;Temp;Humidity;BMP_temperature;BMP_pressure;BME280_temperature;BME280_humidity;BME280_pressure;Samples;Min_cycle;Max_cycle;Signal;HPM_P1;HPM_P2
2022/08/27 00:02:13;;;;;;;;;4.20;3.00;;;;;22.47;49.49;101011.88;5097300;27;45373;-53
2022/08/27 00:04:40;;;;;;;;;2.00;2.00;;;;;22.64;49.42;101021.91;5088719;27;45452;-57
2022/08/27 00:07:05;;;;;;;;;3.40;2.00;;;;;22.67;49.64;101031.69;5097685;27;45220;-53
2022/08/27 00:09:31;;;;;;;;;3.00;3.00;;;;;22.51;50.06;101023.34;5061721;27;47049;-56
2022/08/27 00:11:56;;;;;;;;;7.25;6.25;;;;;22.55;50.00;101018.88;5079286;27;45239;-54
2022/08/27 00:14:22;;;;;;;;;3.50;3.50;;;;;22.52;49.76;101019.41;5096199;27;45175;-54
2022/08/27 00:16:48;;;;;;;;;3.00;3.00;;;;;22.57;49.85;101027.78;5097574;27;45333;-50
2022/08/27 00:19:13;;;;;;;;;3.00;3.00;;;;;22.62;49.89;101026.94;5096975;27;45646;-52
2022/08/27 00:21:39;;;;;;;;;4.25;3.25;;;;;22.55;50.09;101021.66;5078573;27;45267;-53
2022/08/27 00:24:04;;;;;;;;;5.00;4.25;;;;;22.58;49.93;101017.47;5097269;27;45424;-53
2022/08/27 00:26:30;;;;;;;;;4.50;4.50;;;;;22.66;49.84;101025.25;5097430;27;45293;-55
2022/08/27 00:28:55;;;;;;;;;4.75;4.00;;;;;22.55;49.78;101009.63;5097006;27;46312;-54
2022/08/27 00:31:21;;;;;;;;;3.00;3.00;;;;;22.51;49.71;101003.78;5095963;27;45427;-56
2022/08/27 00:33:46;;;;;;;;;6.50;4.00;;;;;22.60;50.12;101018.00;5097085;27;45396;-56
2022/08/27 00:36:12;;;;;;;;;3.75;3.00;;;;;22.54;50.33;101021.94;5097333;27;45352;-51
2022/08/27 00:38:38;;;;;;;;;3.00;3.00;;;;;22.23;50.52;100999.66;5096580;27;46015;-50
2022/08/27 00:41:05;;;;;;;;;3.00;3.00;;;;;22.44;50.29;101018.03;5096700;27;45441;-52
2022/08/27 00:43:45;;;;;;;;;4.00;3.80;;;;;22.43;50.10;101012.72;5096990;27;45367;-54
2022/08/27 00:46:26;;;;;;;;;3.00;3.00;;;;;22.47;50.46;101027.81;5096836;27;45376;-52
2022/08/27 00:48:52;;;;;;;;;3.20;3.00;;;;;22.37;50.28;101005.47;5063194;27;46489;-51
2022/08/27 00:51:20;;;;;;;;;4.00;3.00;;;;;22.24;50.41;100992.97;5078615;27;45508;-52
2022/08/27 00:53:45;;;;;;;;;4.00;3.00;;;;;22.24;50.42;100987.38;5096552;27;45396;-52
2022/08/27 00:56:14;;;;;;;;;3.00;3.00;;;;;22.46;50.69;101020.53;5078728;27;45543;-53
2022/08/27 00:58:45;;;;;;;;;1.80;1.80;;;;;22.30;50.78;101014.19;5078080;27;47818;-52
2022/08/27 01:01:13;;;;;;;;;3.40;2.80;;;;;22.33;50.63;101008.88;5078587;27;45329;-55
2022/08/27 01:03:39;;;;;;;;;2.40;2.00;;;;;22.31;50.54;101005.50;5078705;27;45447;-50
2022/08/27 01:06:05;;;;;;;;;3.50;3.00;;;;;22.38;50.51;101009.94;5095383;27;45391;-53
2022/08/27 01:08:33;;;;;;;;;3.75;3.25;;;;;22.37;50.69;101017.50;5051398;27;46512;-54
2022/08/27 01:10:59;;;;;;;;;4.00;3.00;;;;;21.97;50.78;100969.03;5073664;27;45428;-54
2022/08/27 01:13:26;;;;;;;;;3.00;3.00;;;;;22.10;51.33;101007.53;5078295;27;45843;-52
2022/08/27 01:15:52;;;;;;;;;5.60;3.20;;;;;22.16;51.02;101016.75;5100377;27;45457;-53
2022/08/27 01:18:18;;;;;;;;;6.50;3.00;;;;;22.15;50.98;101001.91;5098780;27;45414;-53
2022/08/27 01:20:57;;;;;;;;;5.25;4.25;;;;;22.30;50.61;101017.00;5098743;27;45375;-50
2022/08/27 01:23:46;;;;;;;;;3.00;2.00;;;;;22.31;50.69;101019.47;5081464;27;45313;-54
2022/08/27 01:26:12;;;;;;;;;3.80;3.00;;;;;22.16;51.04;101020.38;5100071;27;45289;-53
2022/08/27 01:28:38;;;;;;;;;3.00;3.00;;;;;22.12;51.46;101019.25;5081372;27;45554;-53
2022/08/27 01:31:04;;;;;;;;;3.00;3.00;;;;;21.96;51.29;100987.72;5064032;27;45329;-51
2022/08/27 01:33:30;;;;;;;;;2.75;2.75;;;;;22.03;51.44;101019.00;5099588;27;45578;-54
2022/08/27 01:35:55;;;;;;;;;4.25;4.25;;;;;21.88;51.99;101017.06;5099885;27;45675;-52
2022/08/27 01:38:22;;;;;;;;;4.00;3.00;;;;;21.95;51.66;101016.78;5099081;27;46249;-51
2022/08/27 01:40:47;;;;;;;;;3.40;3.40;;;;;22.01;51.63;101010.06;5092315;27;45413;-53
2022/08/27 01:43:13;;;;;;;;;3.00;3.00;;;;;22.09;51.47;101010.63;5099616;27;45327;-51
2022/08/27 01:45:39;;;;;;;;;2.25;2.25;;;;;22.04;51.27;100981.56;5099692;27;45491;-53
2022/08/27 01:48:06;;;;;;;;;5.20;4.80;;;;;22.06;51.71;101004.47;5081183;27;46818;-55
2022/08/27 01:50:34;;;;;;;;;4.20;4.20;;;;;21.76;51.92;100974.63;5081304;27;45439;-54
2022/08/27 01:53:07;;;;;;;;;4.00;4.00;;;;;21.69;52.12;100983.31;5081751;27;45480;-54
2022/08/27 01:55:33;;;;;;;;;4.00;4.00;;;;;21.84;52.26;101004.81;5099599;27;45399;-54
2022/08/27 01:57:58;;;;;;;;;3.50;3.25;;;;;21.93;51.87;101000.31;5081083;27;45353;-56
2022/08/27 02:00:28;;;;;;;;;5.25;4.50;;;;;21.93;51.93;100996.69;5063622;27;45267;-52
2022/08/27 02:02:57;;;;;;;;;4.60;3.80;;;;;21.86;52.33;100998.91;5081917;27;45317;-56
2022/08/27 02:05:23;;;;;;;;;5.00;5.00;;;;;21.85;52.06;101000.03;5081064;27;45424;-53
2022/08/27 02:07:49;;;;;;;;;3.00;3.00;;;;;21.96;51.68;100996.13;5098804;27;46396;-55
2022/08/27 02:10:17;;;;;;;;;4.75;3.50;;;;;22.00;51.64;101000.03;5080529;27;45368;-53
2022/08/27 02:12:43;;;;;;;;;6.40;6.00;;;;;21.97;51.87;100996.97;5081056;27;45422;-52
2022/08/27 02:15:09;;;;;;;;;4.25;2.75;;;;;21.89;51.92;100989.97;5099300;27;45376;-52
2022/08/27 02:17:35;;;;;;;;;3.40;3.00;;;;;21.83;52.15;100989.16;5080516;27;46536;-55
2022/08/27 02:20:00;;;;;;;;;5.25;4.50;;;;;21.86;52.11;100993.31;5098894;27;45214;-52
2022/08/27 02:22:26;;;;;;;;;3.00;3.00;;;;;21.82;52.06;101000.63;5098526;27;45438;-52
2022/08/27 02:24:52;;;;;;;;;3.40;3.00;;;;;21.84;52.07;101003.97;5080380;27;45612;-55
2022/08/27 02:27:18;;;;;;;;;5.00;5.00;;;;;21.85;52.04;101006.47;5064061;27;45555;-54
2022/08/27 02:29:46;;;;;;;;;4.00;3.00;;;;;21.91;52.18;101004.50;5098540;27;45325;-54
2022/08/27 02:32:12;;;;;;;;;2.80;2.80;;;;;21.96;51.74;101006.44;5098875;27;45165;-51
2022/08/27 02:34:37;;;;;;;;;2.00;2.00;;;;;21.93;51.63;100991.91;5098865;27;45359;-54
2022/08/27 02:37:03;;;;;;;;;4.50;2.75;;;;;21.88;51.90;100996.69;5080416;27;46415;-50
2022/08/27 02:39:28;;;;;;;;;4.00;2.75;;;;;21.78;52.24;100990.00;5098285;27;45538;-53
2022/08/27 02:41:54;;;;;;;;;3.00;3.00;;;;;21.70;52.32;100986.94;5080371;27;45417;-53
2022/08/27 02:44:20;;;;;;;;;5.00;3.00;;;;;21.59;52.28;100981.34;5099060;27;45547;-54
2022/08/27 02:46:45;;;;;;;;;3.00;3.00;;;;;21.60;52.54;100980.22;5098051;27;46638;-55
2022/08/27 02:49:10;;;;;;;;;2.00;2.00;;;;;21.45;52.57;100969.06;5080246;27;45239;-52
2022/08/27 02:51:36;;;;;;;;;4.00;4.00;;;;;21.60;52.77;100990.56;5080134;27;45522;-53
2022/08/27 02:54:02;;;;;;;;;2.00;2.00;;;;;21.59;52.60;100986.06;5080233;27;45520;-53
2022/08/27 02:56:27;;;;;;;;;4.50;3.25;;;;;21.65;52.54;100990.53;5079932;27;46403;-53
2022/08/27 02:58:53;;;;;;;;;2.75;2.00;;;;;21.47;52.78;100976.06;5097968;27;45484;-55
2022/08/27 03:01:18;;;;;;;;;2.25;2.25;;;;;21.63;52.54;100987.19;5080060;27;45448;-53
2022/08/27 03:03:44;;;;;;;;;3.75;2.75;;;;;21.69;52.38;100988.91;5098407;27;45341;-51
2022/08/27 03:06:09;;;;;;;;;2.75;2.75;;;;;21.61;52.68;100987.47;5073707;27;45435;-54
2022/08/27 03:08:35;;;;;;;;;3.50;3.25;;;;;21.61;52.71;100984.69;5074196;27;45396;-54
2022/08/27 03:11:00;;;;;;;;;2.75;1.75;;;;;21.66;52.42;100981.88;5098239;27;45351;-54
2022/08/27 03:13:26;;;;;;;;;6.50;2.75;;;;;21.66;52.36;100976.31;5098395;27;45498;-55
2022/08/27 03:15:52;;;;;;;;;3.75;3.50;;;;;21.57;52.84;100982.72;5097867;27;46478;-52
2022/08/27 03:18:18;;;;;;;;;4.00;3.25;;;;;21.50;52.69;100977.44;5097987;27;45386;-50
2022/08/27 03:20:54;;;;;;;;;6.80;5.00;;;;;21.42;52.86;100978.00;5079365;27;45357;-54
2022/08/27 03:23:21;;;;;;;;;3.60;3.00;;;;;21.23;53.38;100973.81;5080350;27;45330;-55
2022/08/27 03:25:55;;;;;;;;;3.20;3.20;;;;;21.20;53.37;100956.78;5097647;27;46941;-55
2022/08/27 03:28:25;;;;;;;;;3.80;2.80;;;;;21.21;53.13;100955.66;5080557;27;45288;-54
2022/08/27 03:30:53;;;;;;;;;3.40;3.00;;;;;21.38;53.34;100978.56;5080291;27;45353;-55
2022/08/27 03:33:19;;;;;;;;;6.40;4.20;;;;;21.26;53.48;100981.66;5098123;27;45626;-54
2022/08/27 03:35:47;;;;;;;;;3.80;2.20;;;;;21.32;53.43;100974.09;5079117;27;45512;-54
2022/08/27 03:38:13;;;;;;;;;4.00;3.20;;;;;21.43;53.08;100968.50;5078642;27;45390;-53
2022/08/27 03:40:39;;;;;;;;;3.75;3.75;;;;;21.50;52.86;100974.66;5108018;27;45350;-54
2022/08/27 03:43:05;;;;;;;;;3.00;3.00;;;;;21.52;52.91;100976.03;5099769;27;45528;-53
2022/08/27 03:45:30;;;;;;;;;4.50;2.50;;;;;21.26;53.13;100959.31;5099627;27;45426;-55
2022/08/27 03:47:56;;;;;;;;;2.00;2.00;;;;;21.41;52.99;100971.59;5118360;27;45392;-54
2022/08/27 03:50:21;;;;;;;;;4.00;3.25;;;;;21.30;53.28;100975.50;5099894;27;45349;-56
2022/08/27 03:52:47;;;;;;;;;3.00;3.00;;;;;21.11;53.76;100976.03;5118501;27;45532;-53
2022/08/27 03:55:13;;;;;;;;;3.00;3.00;;;;;21.04;53.99;100976.31;5099511;27;46584;-55
2022/08/27 03:57:39;;;;;;;;;4.25;3.00;;;;;20.85;53.97;100942.53;5118180;27;45316;-54
2022/08/27 04:00:08;;;;;;;;;3.00;3.00;;;;;21.15;53.79;100968.78;5117888;27;45261;-52
2022/08/27 04:02:34;;;;;;;;;3.20;2.40;;;;;21.01;53.67;100946.16;5100295;27;45235;-52
2022/08/27 04:04:59;;;;;;;;;4.00;4.00;;;;;21.17;53.71;100969.34;5117886;27;46024;-52
2022/08/27 04:07:24;;;;;;;;;2.50;2.50;;;;;21.14;53.60;100964.34;5098632;27;45333;-53
2022/08/27 04:09:50;;;;;;;;;4.00;4.00;;;;;21.09;53.80;100939.22;5077255;27;45328;-53
2022/08/27 04:12:15;;;;;;;;;4.00;2.75;;;;;21.24;53.69;100964.31;5094118;27;45502;-55
2022/08/27 04:14:41;;;;;;;;;4.50;4.50;;;;;21.13;53.48;100963.47;5097069;27;45501;-54
2022/08/27 04:17:06;;;;;;;;;3.50;3.00;;;;;21.05;53.95;100971.56;5096887;27;45332;-54
2022/08/27 04:19:33;;;;;;;;;3.75;2.75;;;;;20.79;54.26;100940.81;5097024;27;45322;-56
2022/08/27 04:22:00;;;;;;;;;3.00;3.00;;;;;20.88;54.51;100958.72;5097380;27;45245;-51
2022/08/27 04:24:26;;;;;;;;;4.00;3.00;;;;;20.81;54.84;100955.34;5096755;27;46023;-53
2022/08/27 04:26:51;;;;;;;;;4.50;3.25;;;;;20.82;54.41;100957.00;5097210;27;45439;-53
2022/08/27 04:29:16;;;;;;;;;4.25;3.25;;;;;20.68;54.42;100923.22;5097352;27;45387;-53
2022/08/27 04:31:42;;;;;;;;;3.25;3.00;;;;;20.94;54.49;100963.19;5097134;27;45450;-54
2022/08/27 04:34:07;;;;;;;;;3.00;3.00;;;;;20.92;54.22;100964.59;5097027;27;46324;-52
2022/08/27 04:36:33;;;;;;;;;5.50;4.00;;;;;20.96;54.33;100957.31;5096902;27;46034;-55
2022/08/27 04:38:58;;;;;;;;;4.00;4.00;;;;;20.92;53.87;100959.81;5097569;27;45345;-56
2022/08/27 04:41:26;;;;;;;;;2.00;2.00;;;;;20.90;54.14;100964.84;5109778;27;45291;-53
2022/08/27 04:43:56;;;;;;;;;2.60;2.60;;;;;20.80;54.34;100946.13;5117356;27;47047;-52
2022/08/27 04:46:23;;;;;;;;;3.60;2.60;;;;;20.65;54.57;100941.34;5098977;27;45431;-51
2022/08/27 04:48:48;;;;;;;;;5.80;5.80;;;;;20.72;54.34;100947.50;5099448;27;45368;-54
2022/08/27 04:51:14;;;;;;;;;3.25;3.25;;;;;20.79;54.56;100963.97;5117911;27;45327;-53
2022/08/27 04:53:39;;;;;;;;;4.00;4.00;;;;;20.74;54.56;100961.16;5117193;27;46555;-53
2022/08/27 04:56:05;;;;;;;;;3.00;3.00;;;;;20.68;54.66;100962.25;5117229;27;45319;-51
2022/08/27 04:58:31;;;;;;;;;3.25;2.75;;;;;20.69;54.83;100948.06;5117429;27;45204;-55
2022/08/27 05:01:00;;;;;;;;;5.25;2.25;;;;;20.82;54.46;100957.81;5117625;27;45431;-56
2022/08/27 05:03:26;;;;;;;;;5.00;4.60;;;;;20.81;54.29;100956.16;5117041;27;45408;-55
2022/08/27 05:05:52;;;;;;;;;4.50;3.75;;;;;20.67;54.48;100927.97;5098926;27;45362;-50
2022/08/27 05:08:18;;;;;;;;;4.00;4.00;;;;;20.84;53.87;100949.22;5099006;27;45400;-51
2022/08/27 05:10:47;;;;;;;;;6.25;4.00;;;;;20.93;53.95;100964.31;5064656;27;45582;-52
2022/08/27 05:13:13;;;;;;;;;4.00;4.00;;;;;20.88;53.87;100966.25;5099069;27;46143;-53
2022/08/27 05:15:38;;;;;;;;;4.25;4.25;;;;;20.72;54.10;100952.25;5098803;27;45340;-56
2022/08/27 05:18:05;;;;;;;;;5.00;3.00;;;;;20.87;54.11;100973.78;5098729;27;45409;-56
2022/08/27 05:20:31;;;;;;;;;6.80;6.20;;;;;20.90;54.07;100980.75;5115952;27;45625;-55
2022/08/27 05:22:57;;;;;;;;;3.25;3.25;;;;;20.68;54.34;100959.47;5098546;27;45650;-53
2022/08/27 05:25:23;;;;;;;;;3.75;3.00;;;;;20.80;54.14;100987.09;5098417;27;45638;-54
2022/08/27 05:27:48;;;;;;;;;2.40;1.60;;;;;20.81;54.12;100978.47;5117084;27;45428;-53
2022/08/27 05:30:14;;;;;;;;;5.50;3.00;;;;;20.88;54.04;100978.25;5116731;27;45483;-50
2022/08/27 05:32:40;;;;;;;;;4.00;2.20;;;;;20.88;53.95;100985.75;5116763;27;46354;-51
2022/08/27 05:35:06;;;;;;;;;4.00;3.50;;;;;20.80;54.25;100987.09;5115592;27;45388;-56
2022/08/27 05:37:32;;;;;;;;;3.00;3.00;;;;;20.55;54.35;100969.22;5077907;27;45311;-54
2022/08/27 05:39:59;;;;;;;;;5.40;4.00;;;;;20.58;54.13;100985.38;5077256;27;45571;-56
2022/08/27 05:42:25;;;;;;;;;3.40;3.40;;;;;20.72;54.16;100994.06;5112176;27;46539;-55
2022/08/27 05:44:51;;;;;;;;;3.00;3.00;;;;;20.76;54.09;100989.59;5081244;27;45523;-50
2022/08/27 05:47:16;;;;;;;;;4.00;3.00;;;;;20.76;53.94;100992.41;5116805;27;45386;-55
2022/08/27 05:49:42;;;;;;;;;3.00;3.00;;;;;20.76;54.16;100995.19;5098581;27;45557;-52
2022/08/27 05:52:09;;;;;;;;;3.75;3.25;;;;;20.57;54.00;100966.97;5116343;27;45380;-51
2022/08/27 05:54:34;;;;;;;;;3.20;3.20;;;;;20.62;54.25;101000.47;5115740;27;45375;-53
2022/08/27 05:57:00;;;;;;;;;5.00;4.00;;;;;20.59;54.04;100976.75;5116225;27;45275;-55
2022/08/27 06:02:09;;;;;;;;;4.00;4.00;;;;;20.82;53.76;100990.47;5120238;27;45783;-55
2022/08/27 06:04:35;;;;;;;;;5.00;5.00;;;;;20.72;53.71;100967.00;5120379;27;45287;-53
2022/08/27 06:07:00;;;;;;;;;3.25;3.00;;;;;20.52;54.13;100955.81;5101539;27;45345;-54
2022/08/27 06:09:28;;;;;;;;;4.00;4.00;;;;;20.66;54.08;100973.69;5101743;27;45531;-56
2022/08/27 06:11:54;;;;;;;;;3.00;3.00;;;;;20.78;53.97;100986.56;5119747;27;46081;-53
2022/08/27 06:14:20;;;;;;;;;4.60;4.60;;;;;20.66;53.93;100984.84;5119885;27;45356;-56
2022/08/27 06:16:47;;;;;;;;;6.25;5.25;;;;;20.44;54.25;100968.34;5101830;27;45305;-56
2022/08/27 06:19:12;;;;;;;;;4.00;4.00;;;;;20.65;54.08;100997.13;5085004;27;45463;-52
2022/08/27 06:21:39;;;;;;;;;7.25;6.75;;;;;20.57;53.82;100990.13;5119856;27;46158;-52
2022/08/27 06:24:04;;;;;;;;;8.80;6.80;;;;;20.48;54.14;100969.47;5119050;27;45324;-55
2022/08/27 06:26:30;;;;;;;;;6.00;4.75;;;;;20.61;54.42;100998.78;5119355;27;45334;-51
2022/08/27 06:28:55;;;;;;;;;5.75;5.00;;;;;20.45;54.29;100973.63;5119816;27;45286;-56
2022/08/27 06:31:23;;;;;;;;;5.00;4.00;;;;;20.52;53.83;100966.97;5100658;27;45965;-55
2022/08/27 06:33:50;;;;;;;;;5.60;4.40;;;;;20.67;54.09;100988.47;5101179;27;45336;-53
2022/08/27 06:36:18;;;;;;;;;4.00;4.00;;;;;20.62;53.97;100991.25;5100952;27;45407;-55
2022/08/27 06:38:44;;;;;;;;;5.20;3.20;;;;;20.56;53.67;100970.88;5100866;27;45401;-53
2022/08/27 06:41:11;;;;;;;;;2.00;1.75;;;;;20.71;53.97;100996.00;5097152;27;46499;-55
2022/08/27 06:43:37;;;;;;;;;3.60;3.60;;;;;20.55;54.17;100980.38;5097039;27;45341;-54
2022/08/27 06:46:04;;;;;;;;;6.00;6.00;;;;;20.39;54.19;100977.50;5080298;27;45267;-55
2022/08/27 06:48:29;;;;;;;;;7.80;5.40;;;;;20.57;54.56;101008.81;5098606;27;45477;-53
2022/08/27 06:50:55;;;;;;;;;6.00;4.00;;;;;20.39;54.21;100977.50;5080423;27;46608;-51
2022/08/27 06:53:20;;;;;;;;;6.00;4.50;;;;;20.57;54.55;101003.22;5096895;27;45322;-51
2022/08/27 06:55:46;;;;;;;;;5.75;5.75;;;;;20.62;54.37;100997.66;5062912;27;45326;-50
2022/08/27 06:58:12;;;;;;;;;6.40;5.00;;;;;20.77;53.99;101016.41;5098559;27;45264;-53
2022/08/27 07:00:38;;;;;;;;;4.00;3.00;;;;;20.71;54.22;101004.38;5079840;27;46161;-55
2022/08/27 07:03:05;;;;;;;;;5.25;4.50;;;;;20.77;54.05;101018.34;5097963;27;45319;-53
2022/08/27 07:05:34;;;;;;;;;6.80;5.80;;;;;20.82;54.06;101013.59;5063382;27;45307;-54
2022/08/27 07:08:00;;;;;;;;;5.20;5.00;;;;;20.65;54.26;100988.75;5098129;27;45503;-54
2022/08/27 07:10:26;;;;;;;;;7.00;7.00;;;;;20.74;53.98;101027.28;5097766;27;45681;-54
2022/08/27 07:12:51;;;;;;;;;5.75;5.75;;;;;20.62;54.54;101031.13;5078712;27;45493;-52
2022/08/27 07:15:17;;;;;;;;;5.50;5.00;;;;;20.59;54.33;101026.09;5098356;27;45968;-54
2022/08/27 07:17:43;;;;;;;;;6.25;6.00;;;;;20.61;54.32;101029.47;5098034;27;45357;-56
2022/08/27 07:20:10;;;;;;;;;6.80;6.20;;;;;20.77;54.31;101029.50;5079630;27;46794;-55
2022/08/27 07:22:35;;;;;;;;;8.00;6.40;;;;;20.85;54.11;101021.47;5096157;27;45388;-56
2022/08/27 07:25:01;;;;;;;;;10.00;10.00;;;;;20.91;53.79;101038.22;5076212;28;45519;-51
2022/08/27 07:27:27;;;;;;;;;6.20;6.00;;;;;20.96;53.45;101025.13;5076264;27;45164;-54
2022/08/27 07:29:52;;;;;;;;;6.25;5.50;;;;;20.80;53.57;101004.69;5046985;28;45735;-53
2022/08/27 07:32:18;;;;;;;;;7.50;6.50;;;;;20.92;54.13;101018.41;5077263;28;45278;-50
2022/08/27 07:34:43;;;;;;;;;7.50;7.50;;;;;20.83;54.13;101014.47;5090033;27;45175;-50
2022/08/27 07:37:09;;;;;;;;;7.25;5.00;;;;;20.97;53.82;101026.78;5098444;27;45190;-53
2022/08/27 07:39:34;;;;;;;;;6.50;5.50;;;;;20.95;53.63;101014.22;5097734;27;45442;-50
2022/08/27 07:44:45;;;;;;;;;7.20;6.20;;;;;20.94;53.30;101005.03;5117837;27;45250;-53
2022/08/27 07:47:11;;;;;;;;;7.00;7.00;;;;;20.96;53.47;100996.38;5117801;27;45302;-50
2022/08/27 07:49:36;;;;;;;;;8.00;6.75;;;;;21.13;53.50;101026.81;5118140;27;46771;-54
2022/08/27 07:52:02;;;;;;;;;5.00;5.00;;;;;21.11;53.44;101038.28;5117501;27;45308;-54
2022/08/27 07:54:28;;;;;;;;;7.00;7.00;;;;;20.99;53.61;101032.94;5117969;27;45283;-49
2022/08/27 07:56:54;;;;;;;;;6.50;6.25;;;;;21.06;53.64;101043.00;5118172;27;45350;-49
2022/08/27 07:59:19;;;;;;;;;6.80;6.00;;;;;21.15;53.33;101044.13;5098876;27;47258;-52
2022/08/27 08:01:46;;;;;;;;;9.00;6.00;;;;;21.17;53.22;101044.69;5117546;27;45376;-49
2022/08/27 08:04:12;;;;;;;;;6.00;6.00;;;;;21.02;52.93;101005.63;5117734;27;45234;-49
2022/08/27 08:06:38;;;;;;;;;7.00;7.00;;;;;21.13;52.74;101018.44;5118030;27;45388;-50
2022/08/27 08:09:04;;;;;;;;;7.75;7.25;;;;;21.26;52.60;101031.88;5117148;27;45713;-53
2022/08/27 08:11:30;;;;;;;;;6.60;4.20;;;;;21.37;52.71;101034.66;5099204;27;45366;-50
2022/08/27 08:13:55;;;;;;;;;7.50;6.75;;;;;21.23;52.42;101012.88;5117588;27;45406;-53
2022/08/27 08:16:23;;;;;;;;;7.00;6.00;;;;;21.26;52.73;101015.13;5116700;27;45866;-51
2022/08/27 08:18:48;;;;;;;;;8.00;5.60;;;;;21.52;52.42;101051.41;5098380;27;45956;-54
2022/08/27 08:21:14;;;;;;;;;5.00;5.00;;;;;21.20;52.23;100984.69;5117139;27;45459;-50
2022/08/27 08:23:39;;;;;;;;;8.00;8.00;;;;;21.55;52.14;101026.88;5116753;27;45447;-50
2022/08/27 08:26:05;;;;;;;;;5.25;5.25;;;;;21.79;52.23;101036.34;5117889;27;45364;-52
2022/08/27 08:28:31;;;;;;;;;4.50;4.50;;;;;21.93;51.44;101046.97;5098853;27;46475;-50
2022/08/27 08:30:57;;;;;;;;;4.75;4.75;;;;;21.79;51.55;101015.97;5116193;27;45217;-50
2022/08/27 08:33:22;;;;;;;;;6.75;4.50;;;;;21.98;51.13;101035.78;5117014;27;45314;-50
2022/08/27 08:35:48;;;;;;;;;8.50;6.50;;;;;22.02;50.94;101050.88;5117607;27;45156;-51
2022/08/27 08:38:15;;;;;;;;;7.50;7.50;;;;;22.01;51.75;101039.97;5117158;27;45930;-51
2022/08/27 08:40:42;;;;;;;;;7.60;7.60;;;;;22.05;50.79;101044.69;5058692;27;45495;-57
2022/08/27 08:43:19;;;;;;;;;5.60;5.00;;;;;22.04;50.35;101043.03;5095787;27;45624;-53
2022/08/27 08:45:45;;;;;;;;;8.00;5.60;;;;;22.00;50.61;101018.72;5077450;27;45490;-57
2022/08/27 08:48:13;;;;;;;;;2.50;2.50;;;;;22.21;50.42;101047.47;5077020;27;47052;-56
2022/08/27 08:51:02;;;;;;;;;2.80;2.40;;;;;21.98;49.81;100999.44;5094386;27;45862;-56
2022/08/27 08:53:48;;;;;;;;;5.60;5.60;;;;;22.28;49.46;101036.84;5096864;27;45472;-56
2022/08/27 08:56:33;;;;;;;;;4.80;4.80;;;;;22.26;49.15;101018.66;5074891;27;45621;-51
2022/08/27 08:59:01;;;;;;;;;4.80;4.40;;;;;22.32;49.30;101031.50;5073512;27;46665;-52
2022/08/27 09:01:27;;;;;;;;;5.60;5.20;;;;;22.36;49.84;101042.97;5062532;27;45892;-58
2022/08/27 09:03:57;;;;;;;;;7.25;5.25;;;;;22.31;49.03;101018.66;5090954;27;45487;-56
2022/08/27 09:06:54;;;;;;;;;6.80;6.00;;;;;22.48;49.30;101041.50;5073027;27;45863;-55
2022/08/27 09:09:38;;;;;;;;;4.00;4.00;;;;;22.38;47.89;101008.00;5089819;27;47035;-58
2022/08/27 09:12:17;;;;;;;;;4.20;4.20;;;;;22.55;48.44;101023.59;5073791;27;45493;-58
2022/08/27 09:14:56;;;;;;;;;6.00;5.40;;;;;22.64;47.50;101024.69;5089700;27;45798;-54
2022/08/27 09:17:22;;;;;;;;;3.60;3.60;;;;;22.86;47.60;101041.09;5075939;27;45469;-52
2022/08/27 09:19:47;;;;;;;;;5.50;5.50;;;;;22.65;46.01;100998.41;5110569;27;45663;-53
2022/08/27 09:22:31;;;;;;;;;5.00;5.00;;;;;22.90;46.47;101041.34;5075162;27;45516;-54
2022/08/27 09:25:15;;;;;;;;;4.80;3.60;;;;;23.08;46.08;101047.38;5077769;27;45919;-51
2022/08/27 09:27:41;;;;;;;;;5.40;3.80;;;;;23.11;45.51;101039.25;5089354;27;45483;-52
2022/08/27 09:33:28;;;;;;;;;7.20;5.00;;;;;23.16;45.80;101035.59;5091057;27;45550;-52
2022/08/27 09:35:54;;;;;;;;;4.75;4.25;;;;;23.11;44.14;101022.44;5092104;27;45431;-52
2022/08/27 09:38:25;;;;;;;;;3.00;3.00;;;;;23.22;43.80;101044.78;5095276;27;45479;-51
2022/08/27 09:40:51;;;;;;;;;2.80;2.40;;;;;23.11;43.42;101019.66;5056617;27;46324;-51
2022/08/27 09:43:22;;;;;;;;;8.00;4.50;;;;;23.36;42.91;101044.97;5111354;27;45801;-51
2022/08/27 09:45:53;;;;;;;;;3.60;3.40;;;;;23.44;42.85;101040.72;5075980;27;45961;-52
2022/08/27 09:48:20;;;;;;;;;3.00;3.00;;;;;23.47;43.50;101046.59;5076919;27;45573;-55
2022/08/27 09:51:06;;;;;;;;;8.00;4.00;;;;;23.46;43.75;101046.88;5093825;27;45526;-57
2022/08/27 09:53:41;;;;;;;;;5.20;4.40;;;;;23.47;43.95;101031.75;5094253;27;45789;-54
2022/08/27 09:56:07;;;;;;;;;5.80;4.20;;;;;23.50;44.41;101048.81;5077263;27;45350;-53
2022/08/27 09:58:45;;;;;;;;;6.60;4.20;;;;;23.35;43.86;101030.16;5075788;27;45842;-50
2022/08/27 10:01:22;;;;;;;;;5.00;5.00;;;;;23.49;43.58;101041.53;5077525;27;47084;-52
2022/08/27 10:03:48;;;;;;;;;6.40;5.00;;;;;23.59;43.64;101039.78;5075900;27;45476;-53
2022/08/27 10:06:13;;;;;;;;;3.00;3.00;;;;;23.68;42.11;101041.66;5093196;27;45787;-54
2022/08/27 10:08:47;;;;;;;;;4.50;4.50;;;;;23.78;41.88;101042.69;5076212;27;45421;-52
2022/08/27 10:11:21;;;;;;;;;3.40;2.80;;;;;23.86;41.92;101044.00;5076246;27;45561;-51
2022/08/27 10:14:12;;;;;;;;;3.60;3.60;;;;;23.82;42.00;101029.75;5075731;27;45439;-50
2022/08/27 10:16:46;;;;;;;;;5.80;5.80;;;;;24.03;41.69;101051.97;5094583;27;45380;-51
2022/08/27 10:19:27;;;;;;;;;6.80;5.00;;;;;24.07;41.71;101048.31;5094920;27;45801;-51
2022/08/27 10:21:59;;;;;;;;;3.00;3.00;;;;;24.12;41.14;101043.78;5077891;27;46560;-53
2022/08/27 10:24:44;;;;;;;;;7.40;5.40;;;;;24.04;41.16;101048.03;5050002;27;46169;-54
2022/08/27 10:27:48;;;;;;;;;5.80;5.00;;;;;23.96;42.48;101038.31;5093889;27;45392;-50
2022/08/27 10:30:16;;;;;;;;;5.80;5.00;;;;;23.86;42.40;101007.59;5048490;27;45531;-52
2022/08/27 10:32:51;;;;;;;;;5.80;3.80;;;;;23.99;42.62;101012.50;5058576;27;45975;-51
2022/08/27 10:35:24;;;;;;;;;5.20;4.20;;;;;24.25;42.58;101029.06;5081425;27;45496;-49
2022/08/27 10:38:06;;;;;;;;;4.40;4.40;;;;;24.13;42.59;101009.00;5075759;27;45501;-52
2022/08/27 10:40:37;;;;;;;;;4.00;4.00;;;;;24.33;42.80;101024.78;5071586;27;45392;-50
2022/08/27 10:43:28;;;;;;;;;3.80;3.00;;;;;24.33;41.01;101028.38;5079126;27;45767;-49
2022/08/27 10:46:36;;;;;;;;;16.20;14.40;;;;;24.42;40.38;101034.19;5077799;27;45433;-51
2022/08/27 10:49:08;;;;;;;;;2.00;2.00;;;;;24.49;40.30;101023.44;5097153;27;45541;-49
2022/08/27 10:51:40;;;;;;;;;4.00;4.00;;;;;24.52;40.22;101026.75;5077339;27;45389;-53
2022/08/27 10:54:16;;;;;;;;;4.40;4.40;;;;;24.57;41.14;101024.75;5085894;27;46100;-52
2022/08/27 10:56:57;;;;;;;;;5.80;5.80;;;;;24.60;40.39;101023.31;5091710;27;45607;-52
2022/08/27 10:59:32;;;;;;;;;4.40;4.40;;;;;24.53;40.06;101020.84;5040830;27;45462;-51
2022/08/27 11:02:10;;;;;;;;;5.60;5.60;;;;;24.63;40.75;101014.28;5081833;27;45437;-51
2022/08/27 11:04:38;;;;;;;;;6.20;5.20;;;;;24.71;39.98;101009.97;5073459;27;45551;-52
2022/08/27 11:07:25;;;;;;;;;4.60;4.60;;;;;24.40;39.77;100943.91;5073917;27;45906;-54
2022/08/27 11:10:17;;;;;;;;;5.60;4.40;;;;;24.80;39.76;100998.91;5074214;27;45465;-53
2022/08/27 11:12:43;;;;;;;;;3.00;3.00;;;;;24.92;39.44;101001.28;5090911;27;45515;-55
2022/08/27 11:15:12;;;;;;;;;2.00;1.00;;;;;25.02;39.46;101001.13;5074916;27;47407;-53
2022/08/27 11:18:03;;;;;;;;;6.40;4.00;;;;;24.96;38.73;100979.91;5057764;27;45408;-58
2022/08/27 11:20:33;;;;;;;;;5.60;5.60;;;;;25.10;38.15;100997.66;5075214;27;45516;-54
2022/08/27 11:23:05;;;;;;;;;4.40;4.40;;;;;25.14;38.09;100981.03;5092461;27;45361;-52
2022/08/27 11:25:33;;;;;;;;;3.00;3.00;;;;;25.27;37.15;101001.84;5062791;27;45988;-56
2022/08/27 11:27:59;;;;;;;;;5.00;4.00;;;;;25.38;37.66;100985.66;5090782;27;45756;-54
2022/08/27 11:30:40;;;;;;;;;4.25;3.25;;;;;25.30;37.32;100953.50;5092370;27;45849;-54
2022/08/27 11:33:32;;;;;;;;;4.00;4.00;;;;;25.47;37.48;100983.84;5092121;27;45959;-55
2022/08/27 11:36:31;;;;;;;;;4.00;4.00;;;;;25.47;37.20;100989.47;5092363;27;45907;-55
2022/08/27 11:39:02;;;;;;;;;4.00;3.60;;;;;25.53;36.89;100988.25;5105950;27;45434;-55
2022/08/27 11:41:51;;;;;;;;;3.80;3.80;;;;;25.60;36.99;100982.22;5073412;27;45507;-53